createdAt,value
2022-07-30T04:01:32.622Z,5.37
2022-07-30T04:04:06.694Z,5.30
2022-07-30T04:06:39.586Z,5.30
2022-07-30T04:09:09.958Z,5.30
2022-07-30T04:11:41.332Z,5.30
2022-07-30T04:14:10.229Z,5.30
2022-07-30T04:16:47.538Z,5.30
2022-07-30T04:19:23.506Z,6.20
2022-07-30T04:21:54.890Z,5.30
2022-07-30T04:24:24.681Z,5.30
2022-07-30T04:26:53.764Z,5.30
2022-07-30T04:29:24.727Z,5.30
2022-07-30T04:31:56.088Z,5.33
2022-07-30T04:34:24.247Z,5.30
2022-07-30T04:36:52.353Z,5.30
2022-07-30T04:39:20.695Z,5.27
2022-07-30T04:41:50.190Z,5.30
2022-07-30T04:44:19.892Z,5.30
2022-07-30T04:46:48.502Z,5.30
2022-07-30T04:49:19.943Z,5.30
2022-07-30T04:51:50.069Z,5.30
2022-07-30T04:54:20.497Z,5.30
2022-07-30T04:56:53.802Z,5.27
2022-07-30T04:59:25.806Z,5.27
2022-07-30T05:01:58.313Z,5.27
2022-07-30T05:04:30.123Z,5.27
2022-07-30T05:07:00.333Z,5.30
2022-07-30T05:09:29.477Z,5.37
2022-07-30T05:11:59.858Z,5.33
2022-07-30T05:14:29.734Z,5.30
2022-07-30T05:16:58.285Z,5.30
2022-07-30T05:19:28.072Z,5.30
2022-07-30T05:21:56.684Z,5.30
2022-07-30T05:24:24.769Z,5.30
2022-07-30T05:26:53.250Z,5.30
2022-07-30T05:29:21.376Z,5.33
2022-07-30T05:31:49.751Z,5.30
2022-07-30T05:34:18.080Z,5.30
2022-07-30T05:36:47.577Z,5.30
2022-07-30T05:39:16.748Z,5.33
2022-07-30T05:41:44.813Z,5.30
2022-07-30T05:44:13.113Z,5.30
2022-07-30T05:46:41.599Z,5.30
2022-07-30T05:49:09.832Z,5.30
2022-07-30T05:51:38.014Z,5.40
2022-07-30T05:54:07.703Z,5.30
2022-07-30T05:56:36.005Z,5.30
2022-07-30T05:59:04.806Z,5.30
2022-07-30T06:01:32.921Z,5.30
2022-07-30T06:04:01.142Z,5.33
2022-07-30T06:06:29.288Z,5.33
2022-07-30T06:08:57.406Z,5.27
2022-07-30T06:11:26.794Z,5.30
2022-07-30T06:13:54.902Z,5.30
2022-07-30T06:16:23.128Z,5.30
2022-07-30T06:18:51.368Z,5.30
2022-07-30T06:21:19.470Z,5.30
2022-07-30T06:23:47.586Z,5.30
2022-07-30T06:26:16.060Z,5.30
2022-07-30T06:28:45.492Z,5.30
2022-07-30T06:31:13.601Z,5.30
2022-07-30T06:33:41.797Z,5.30
2022-07-30T06:36:14.351Z,5.30
2022-07-30T06:38:42.819Z,5.30
2022-07-30T06:41:11.432Z,5.27
2022-07-30T06:43:39.598Z,5.27
2022-07-30T06:46:09.147Z,5.30
2022-07-30T06:48:37.628Z,5.90
2022-07-30T06:51:05.842Z,5.30
2022-07-30T06:53:33.896Z,5.30
2022-07-30T06:56:10.450Z,5.27
2022-07-30T06:58:38.577Z,5.30
2022-07-30T07:01:11.199Z,5.37
2022-07-30T07:03:40.714Z,5.40
2022-07-30T07:06:09.460Z,5.33
2022-07-30T07:08:38.353Z,5.33
2022-07-30T07:11:06.519Z,5.30
2022-07-30T07:13:34.714Z,5.40
2022-07-30T07:16:03.065Z,5.30
2022-07-30T07:18:32.483Z,5.33
2022-07-30T07:21:00.590Z,5.30
2022-07-30T07:23:41.467Z,5.37
2022-07-30T07:26:12.107Z,5.37
2022-07-30T07:28:41.142Z,5.33
2022-07-30T07:31:09.499Z,5.37
2022-07-30T07:33:40.527Z,5.40
2022-07-30T07:36:08.805Z,5.33
2022-07-30T07:38:37.811Z,5.40
2022-07-30T07:41:06.436Z,5.30
2022-07-30T07:43:34.603Z,5.33
2022-07-30T07:46:02.765Z,5.30
2022-07-30T07:48:31.058Z,5.30
2022-07-30T07:51:01.040Z,5.37
2022-07-30T07:53:29.175Z,5.33
2022-07-30T07:55:57.498Z,5.33
2022-07-30T07:58:26.459Z,5.23
2022-07-30T08:00:55.521Z,5.23
2022-07-30T08:03:23.866Z,5.27
2022-07-30T08:06:00.991Z,5.30
2022-07-30T08:08:37.499Z,5.30
2022-07-30T08:11:07.011Z,5.30
2022-07-30T08:13:49.156Z,5.27
2022-07-30T08:16:21.372Z,5.30
2022-07-30T08:18:49.757Z,5.27
2022-07-30T08:21:18.007Z,5.23
2022-07-30T08:23:47.435Z,5.17
2022-07-30T08:26:15.557Z,5.27
2022-07-30T08:28:45.531Z,5.23
2022-07-30T08:31:13.655Z,5.20
2022-07-30T08:33:41.701Z,5.20
2022-07-30T08:36:10.351Z,5.20
2022-07-30T08:38:39.634Z,5.23
2022-07-30T08:41:09.444Z,5.20
2022-07-30T08:43:38.499Z,5.13
2022-07-30T08:46:11.055Z,5.20
2022-07-30T08:48:41.951Z,5.07
2022-07-30T08:51:11.303Z,5.13
2022-07-30T08:53:39.908Z,5.07
2022-07-30T08:56:09.520Z,5.13
2022-07-30T08:58:37.585Z,5.10
2022-07-30T09:01:07.644Z,5.10
2022-07-30T09:03:44.226Z,5.10
2022-07-30T09:06:13.235Z,5.10
2022-07-30T09:08:42.532Z,5.10
2022-07-30T09:11:12.408Z,5.13
2022-07-30T09:13:43.054Z,5.10
2022-07-30T09:16:23.278Z,5.10
2022-07-30T09:18:52.489Z,5.07
2022-07-30T09:21:24.079Z,5.10
2022-07-30T09:24:01.978Z,5.10
2022-07-30T09:26:32.903Z,5.10
2022-07-30T09:29:18.083Z,5.10
2022-07-30T09:31:56.592Z,5.10
2022-07-30T09:34:27.337Z,5.10
2022-07-30T09:36:57.773Z,5.03
2022-07-30T09:39:34.306Z,5.07
2022-07-30T09:42:05.620Z,5.07
2022-07-30T09:44:33.864Z,5.10
2022-07-30T09:47:02.881Z,5.07
2022-07-30T09:49:31.537Z,5.10
2022-07-30T09:51:59.703Z,5.07
2022-07-30T09:57:57.733Z,5.07
2022-07-30T10:00:29.606Z,5.10
2022-07-30T10:02:57.789Z,5.07
2022-07-30T10:05:25.908Z,5.10
2022-07-30T10:07:58.563Z,5.10
2022-07-30T10:10:29.669Z,5.10
2022-07-30T10:13:04.500Z,5.07
2022-07-30T10:15:35.049Z,5.10
2022-07-30T10:18:06.007Z,5.10
2022-07-30T10:20:35.651Z,5.10
2022-07-30T10:23:08.234Z,5.07
2022-07-30T10:25:49.656Z,5.03
2022-07-30T10:28:25.390Z,5.00
2022-07-30T10:30:54.652Z,5.03
2022-07-30T10:33:36.305Z,5.03
2022-07-30T10:36:06.332Z,5.00
2022-07-30T10:38:43.169Z,5.00
2022-07-30T10:41:42.769Z,5.00
2022-07-30T10:45:02.528Z,5.00
2022-07-30T10:47:40.380Z,5.00
2022-07-30T10:50:15.829Z,5.07
2022-07-30T10:52:51.443Z,5.03
2022-07-30T10:55:37.447Z,4.97
2022-07-30T10:58:09.675Z,5.00
2022-07-30T11:01:00.606Z,5.00
2022-07-30T11:03:40.566Z,5.00
2022-07-30T11:06:29.404Z,5.00
2022-07-30T11:08:58.294Z,5.00
2022-07-30T11:12:05.763Z,5.00
2022-07-30T11:15:06.793Z,5.07
2022-07-30T11:18:11.440Z,5.00
2022-07-30T11:20:48.283Z,5.00
2022-07-30T11:23:39.980Z,5.00
2022-07-30T11:26:14.366Z,4.97
2022-07-30T11:28:45.740Z,4.97
2022-07-30T11:31:56.590Z,5.00
2022-07-30T11:34:31.038Z,5.00
2022-07-30T11:37:18.922Z,4.90
2022-07-30T11:40:13.595Z,4.80
2022-07-30T11:42:43.580Z,4.80
2022-07-30T11:45:33.326Z,4.77
2022-07-30T11:48:01.942Z,4.60
2022-07-30T11:50:34.219Z,4.50
2022-07-30T11:53:05.856Z,4.33
2022-07-30T11:55:37.277Z,4.20
2022-07-30T11:58:10.473Z,4.20
2022-07-30T12:00:41.703Z,4.13
2022-07-30T12:03:16.485Z,4.20
2022-07-30T12:05:52.620Z,4.17
2022-07-30T12:08:33.315Z,4.13
2022-07-30T12:11:04.798Z,4.00
2022-07-30T12:13:45.420Z,4.00
2022-07-30T12:16:17.364Z,4.00
2022-07-30T12:18:46.776Z,4.03
2022-07-30T12:21:17.580Z,4.10
2022-07-30T12:23:56.388Z,4.00
2022-07-30T12:26:27.170Z,3.80
2022-07-30T12:28:57.039Z,3.90
2022-07-30T12:31:25.412Z,3.80
2022-07-30T12:33:58.870Z,3.70
2022-07-30T12:36:34.999Z,3.70
2022-07-30T12:39:06.652Z,3.70
2022-07-30T12:41:46.654Z,3.63
2022-07-30T12:44:39.811Z,3.60
2022-07-30T12:47:20.864Z,3.50
2022-07-30T12:49:50.255Z,3.50
2022-07-30T12:52:30.918Z,3.50
2022-07-30T12:55:05.644Z,3.35
2022-07-30T12:57:57.081Z,3.05
2022-07-30T13:00:28.739Z,2.88
2022-07-30T13:02:57.694Z,2.60
2022-07-30T13:05:49.738Z,2.38
2022-07-30T13:08:19.451Z,2.15
2022-07-30T13:10:59.652Z,2.10
2022-07-30T13:13:28.528Z,2.00
2022-07-30T13:16:01.909Z,2.00
2022-07-30T13:18:31.450Z,2.10
2022-07-30T13:21:00.882Z,2.20
2022-07-30T13:23:30.582Z,2.20
2022-07-30T13:25:58.905Z,2.30
2022-07-30T13:28:27.937Z,2.20
2022-07-30T13:30:57.573Z,2.13
2022-07-30T13:33:25.700Z,2.20
2022-07-30T13:35:54.218Z,2.40
2022-07-30T13:38:22.331Z,2.38
2022-07-30T13:40:51.939Z,2.67
2022-07-30T13:43:21.203Z,2.40
2022-07-30T13:45:49.321Z,2.40
2022-07-30T13:48:17.816Z,2.55
2022-07-30T13:50:46.704Z,2.50
2022-07-30T13:53:15.074Z,2.28
2022-07-30T13:55:43.485Z,2.10
2022-07-30T13:58:12.893Z,2.05
2022-07-30T14:00:41.207Z,1.90
2022-07-30T14:03:12.024Z,1.80
2022-07-30T14:05:42.094Z,1.70
2022-07-30T14:08:12.814Z,1.60
2022-07-30T14:10:41.783Z,1.50
2022-07-30T14:13:19.019Z,1.60
2022-07-30T14:15:49.589Z,1.60
2022-07-30T14:18:18.012Z,1.65
2022-07-30T14:20:48.742Z,1.70
2022-07-30T14:23:17.644Z,1.70
2022-07-30T14:25:46.031Z,1.70
2022-07-30T14:28:16.335Z,1.80
2022-07-30T14:30:44.685Z,1.88
2022-07-30T14:33:12.743Z,1.90
2022-07-30T14:35:40.833Z,1.98
2022-07-30T14:38:09.024Z,2.00
2022-07-30T14:40:37.257Z,1.92
2022-07-30T14:43:06.553Z,1.90
2022-07-30T14:45:36.567Z,1.90
2022-07-30T14:48:05.173Z,1.90
2022-07-30T14:50:33.374Z,1.80
2022-07-30T14:53:01.574Z,1.70
2022-07-30T14:55:29.907Z,1.70
2022-07-30T14:57:57.959Z,1.60
2022-07-30T15:00:26.009Z,1.55
2022-07-30T15:02:55.636Z,1.50
2022-07-30T15:05:23.930Z,1.60
2022-07-30T15:07:52.193Z,1.63
2022-07-30T15:10:20.558Z,1.70
2022-07-30T15:12:50.702Z,1.88
2022-07-30T15:15:19.100Z,2.00
2022-07-30T15:17:50.068Z,2.10
2022-07-30T15:20:20.539Z,2.13
2022-07-30T15:22:48.612Z,2.20
2022-07-30T15:25:16.733Z,2.25
2022-07-30T15:27:44.888Z,2.20
2022-07-30T15:30:14.177Z,2.20
2022-07-30T15:32:42.218Z,2.30
2022-07-30T15:35:13.645Z,2.30
2022-07-30T15:37:43.510Z,2.30
2022-07-30T15:40:12.118Z,2.20
2022-07-30T15:42:40.710Z,2.20
2022-07-30T15:45:18.240Z,2.38
2022-07-30T15:47:47.451Z,2.65
2022-07-30T15:50:17.208Z,2.90
2022-07-30T15:52:46.682Z,3.00
2022-07-30T15:55:14.735Z,2.97
2022-07-30T15:57:43.303Z,2.95
2022-07-30T16:00:13.060Z,2.80
2022-07-30T16:02:42.018Z,2.75
2022-07-30T16:05:14.168Z,2.65
2022-07-30T16:07:42.830Z,2.60
2022-07-30T16:10:12.392Z,2.60
2022-07-30T16:12:41.963Z,2.50
2022-07-30T16:15:11.458Z,2.60
2022-07-30T16:17:40.115Z,2.58
2022-07-30T16:20:10.190Z,2.55
2022-07-30T16:22:39.265Z,2.58
2022-07-30T16:25:08.074Z,2.58
2022-07-30T16:27:37.595Z,2.55
2022-07-30T16:30:07.323Z,2.55
2022-07-30T16:32:35.403Z,2.60
2022-07-30T16:35:03.561Z,2.58
2022-07-30T16:37:31.680Z,2.60
2022-07-30T16:39:59.840Z,2.65
2022-07-30T16:42:27.914Z,2.63
2022-07-30T16:44:57.321Z,2.70
2022-07-30T16:47:25.457Z,2.65
2022-07-30T16:49:53.597Z,2.70
2022-07-30T16:52:21.637Z,2.70
2022-07-30T16:54:54.798Z,2.78
2022-07-30T16:57:22.856Z,2.85
2022-07-30T16:59:50.952Z,2.85
2022-07-30T17:02:20.413Z,2.88
2022-07-30T17:04:48.539Z,2.97
2022-07-30T17:07:17.059Z,3.03
2022-07-30T17:09:45.152Z,2.95
2022-07-30T17:12:23.295Z,3.15
2022-07-30T17:14:53.667Z,3.20
2022-07-30T17:17:23.313Z,3.25
2022-07-30T17:19:51.699Z,3.25
2022-07-30T17:22:19.797Z,3.30
2022-07-30T17:24:47.843Z,3.33
2022-07-30T17:27:15.941Z,3.45
2022-07-30T17:29:50.045Z,3.50
2022-07-30T17:32:20.072Z,3.50
2022-07-30T17:34:50.210Z,3.60
2022-07-30T17:37:18.456Z,3.70
2022-07-30T17:40:28.228Z,3.80
2022-07-30T17:42:35.161Z,3.90
2022-07-30T17:45:04.950Z,4.00
2022-07-30T17:47:33.760Z,4.00
2022-07-30T17:50:05.186Z,4.10
2022-07-30T17:52:33.383Z,4.10
2022-07-30T17:55:01.639Z,4.17
2022-07-30T17:57:29.675Z,4.30
2022-07-30T17:59:57.825Z,4.33
2022-07-30T18:02:27.666Z,4.50
2022-07-30T18:04:57.193Z,4.60
2022-07-30T18:07:26.926Z,4.87
2022-07-30T18:09:55.076Z,4.97
2022-07-30T18:12:23.378Z,5.07
2022-07-30T18:14:51.972Z,5.40
2022-07-30T18:17:20.184Z,5.47
2022-07-30T18:19:48.285Z,5.47
2022-07-30T18:22:17.232Z,5.47
2022-07-30T18:25:00.315Z,5.50
2022-07-30T18:27:29.800Z,5.60
2022-07-30T18:29:59.205Z,5.63
2022-07-30T18:32:27.274Z,5.57
2022-07-30T18:34:55.420Z,5.63
2022-07-30T18:37:23.529Z,5.63
2022-07-30T18:39:51.590Z,5.70
2022-07-30T18:42:21.020Z,5.70
2022-07-30T18:44:51.925Z,5.67
2022-07-30T18:47:20.008Z,5.67
2022-07-30T18:49:50.165Z,6.10
2022-07-30T18:52:18.677Z,5.77
2022-07-30T18:54:46.745Z,5.80
2022-07-30T18:57:14.904Z,5.80
2022-07-30T18:59:44.321Z,6.10
2022-07-30T19:02:12.433Z,5.80
2022-07-30T19:04:40.870Z,5.73
2022-07-30T19:07:09.052Z,5.70
2022-07-30T19:09:37.459Z,5.73
2022-07-30T19:12:06.823Z,5.73
2022-07-30T19:14:35.254Z,5.70
2022-07-30T19:17:13.580Z,5.70
2022-07-30T19:19:41.971Z,5.77
2022-07-30T19:22:10.155Z,5.83
2022-07-30T19:24:38.497Z,5.70
2022-07-30T19:27:09.941Z,6.40
2022-07-30T19:29:42.061Z,5.67
2022-07-30T19:32:11.778Z,5.70
2022-07-30T19:34:43.341Z,5.70
2022-07-30T19:37:11.787Z,5.73
2022-07-30T19:40:06.368Z,5.67
2022-07-30T19:42:27.975Z,5.70
2022-07-30T19:44:58.608Z,5.77
2022-07-30T19:47:35.322Z,5.70
2022-07-30T19:50:10.053Z,5.77
2022-07-30T19:52:38.541Z,5.63
2022-07-30T19:55:17.317Z,6.10
2022-07-30T19:57:56.058Z,5.70
2022-07-30T20:00:25.456Z,5.80
2022-07-30T20:02:54.961Z,5.70
2022-07-30T20:05:24.721Z,5.90
2022-07-30T20:07:53.336Z,6.27
2022-07-30T20:10:23.967Z,5.70
2022-07-30T20:12:52.105Z,5.70
2022-07-30T20:15:20.631Z,5.70
2022-07-30T20:17:48.671Z,5.90
2022-07-30T20:20:18.157Z,6.00
2022-07-30T20:22:54.573Z,6.50
2022-07-30T20:25:22.702Z,5.63
2022-07-30T20:27:51.067Z,5.90
2022-07-30T20:30:25.195Z,6.10
2022-07-30T20:32:53.740Z,5.60
2022-07-30T20:35:26.504Z,5.60
2022-07-30T20:37:56.366Z,5.63
2022-07-30T20:40:26.781Z,5.60
2022-07-30T20:42:55.614Z,5.70
2022-07-30T20:45:25.168Z,5.70
2022-07-30T20:47:56.432Z,5.70
2022-07-30T20:50:30.830Z,5.70
2022-07-30T20:53:00.224Z,5.67
2022-07-30T20:55:28.967Z,5.67
2022-07-30T20:58:06.951Z,5.60
